Time;durP1;ratioP1;P1;durP2;ratioP2;P2;SDS_P1;SDS_P2;PMS_P1;PMS_P2;Temp;Humidity;BMP_temperature;BMP_pressure;BME280_temperature;BME280_humidity;BME280_pressure;Samples;Min_cycle;Max_cycle;Signal;HPM_P1;HPM_P2
2022/01/15 00:02:23;;;;;;;5.20;3.88;;;;;;;7.51;100.00;100032.06;5010237;28;20492;-61
2022/01/15 00:04:48;;;;;;;7.70;4.05;;;;;;;7.63;100.00;100049.59;5010129;28;20022;-61
2022/01/15 00:07:14;;;;;;;5.50;3.88;;;;;;;7.73;100.00;100061.25;5010098;28;20026;-61
2022/01/15 00:09:42;;;;;;;5.72;3.45;;;;;;;8.23;100.00;100052.84;5010201;28;20026;-61
2022/01/15 00:12:08;;;;;;;7.00;4.18;;;;;;;7.62;100.00;100015.91;5010151;28;20420;-61
2022/01/15 00:14:38;;;;;;;5.53;3.60;;;;;;;7.91;100.00;100028.06;5010165;28;20111;-62
2022/01/15 00:17:14;;;;;;;5.22;3.60;;;;;;;7.99;100.00;100021.19;5010023;28;20480;-61
2022/01/15 00:19:43;;;;;;;6.35;4.28;;;;;;;7.77;100.00;100046.00;5011836;28;20028;-62
2022/01/15 00:22:19;;;;;;;5.82;3.60;;;;;;;8.35;100.00;100050.13;5013770;28;20133;-62
2022/01/15 00:24:45;;;;;;;6.63;4.30;;;;;;;7.81;100.00;100057.75;5013346;28;20037;-62
2022/01/15 00:27:12;;;;;;;6.38;4.30;;;;;;;7.21;100.00;100055.28;5013591;28;20535;-62
2022/01/15 00:29:37;;;;;;;7.25;4.63;;;;;;;7.73;100.00;100062.09;5013367;28;20471;-61
2022/01/15 00:32:05;;;;;;;8.02;4.45;;;;;;;7.32;100.00;100086.31;5012854;28;20038;-62
2022/01/15 00:34:31;;;;;;;17.20;9.23;;;;;;;6.87;100.00;100086.00;5013292;28;20029;-62
2022/01/15 00:36:56;;;;;;;10.90;6.35;;;;;;;7.10;100.00;100143.88;5012148;28;20040;-62
2022/01/15 00:39:22;;;;;;;23.85;14.50;;;;;;;7.10;100.00;100115.25;5013202;28;20480;-62
2022/01/15 00:41:48;;;;;;;9.35;5.25;;;;;;;7.46;100.00;100114.78;5013362;28;20029;-62
2022/01/15 00:44:13;;;;;;;6.68;4.50;;;;;;;7.83;100.00;100131.13;5013199;28;20030;-62
2022/01/15 00:46:39;;;;;;;7.32;4.53;;;;;;;7.44;100.00;100111.44;5012775;28;20022;-62
2022/01/15 00:49:04;;;;;;;8.38;4.78;;;;;;;7.12;100.00;100113.53;5011664;28;20481;-62
2022/01/15 00:51:30;;;;;;;7.97;4.63;;;;;;;7.24;100.00;100119.28;5013161;28;20034;-62
2022/01/15 00:53:55;;;;;;;8.52;5.05;;;;;;;7.02;100.00;100122.91;5012847;28;20057;-62
2022/01/15 00:56:21;;;;;;;7.55;4.70;;;;;;;7.43;100.00;100181.41;5013094;28;20037;-61
2022/01/15 00:58:46;;;;;;;6.95;4.65;;;;;;;7.27;100.00;100119.22;5013112;28;20037;-62
2022/01/15 01:01:34;;;;;;;5.93;4.10;;;;;;;7.55;100.00;100173.66;5244546;23;20001;-65
2022/01/15 01:03:59;;;;;;;6.70;4.55;;;;;;;6.58;100.00;100050.13;4656552;28;10000075;-65
2022/01/15 01:06:25;;;;;;;7.32;4.80;;;;;;;7.20;100.00;100177.47;5012270;28;20030;-65
2022/01/15 01:08:50;;;;;;;7.10;4.68;;;;;;;7.15;100.00;100180.03;5011981;28;20030;-66
2022/01/15 01:11:22;;;;;;;7.00;4.82;;;;;;;6.53;100.00;100077.16;5011738;28;20578;-65
2022/01/15 01:24:17;;;;;;;8.93;5.15;;;;;;;7.17;100.00;100238.19;4993127;28;20476;-64
2022/01/15 01:29:33;;;;;;;7.00;4.80;;;;;;;6.44;100.00;100112.56;4992930;28;20038;-65
2022/01/15 01:32:08;;;;;;;7.65;5.10;;;;;;;7.39;100.00;100214.34;4991649;28;20034;-64
2022/01/15 01:34:37;;;;;;;7.80;4.90;;;;;;;6.80;100.00;100157.69;5001000;28;20033;-64
2022/01/15 01:37:20;;;;;;;8.27;5.43;;;;;;;6.71;100.00;100141.78;5011424;28;20511;-64
2022/01/15 01:39:50;;;;;;;7.85;5.40;;;;;;;7.30;100.00;100242.25;5011754;28;20468;-64
2022/01/15 01:45:09;;;;;;;;;;;;;;;7.45;100.00;100255.56;4992992;28;20035;-65
2022/01/15 01:47:40;;;;;;;8.35;5.30;;;;;;;7.44;100.00;100258.97;5007377;28;19949;-65
2022/01/15 01:50:17;;;;;;;6.30;4.47;;;;;;;7.43;100.00;100199.09;4992467;28;20022;-65
2022/01/15 01:52:49;;;;;;;8.63;5.65;;;;;;;7.14;100.00;100207.88;4992181;28;20030;-65
2022/01/15 01:55:16;;;;;;;9.15;5.68;;;;;;;7.17;100.00;100193.50;4990999;28;20062;-65
2022/01/15 01:57:42;;;;;;;8.43;5.18;;;;;;;7.19;100.00;100199.38;4992620;28;20034;-65
2022/01/15 02:00:13;;;;;;;8.45;5.20;;;;;;;7.37;100.00;100269.97;4992045;28;20113;-65
2022/01/15 02:02:39;;;;;;;9.38;5.70;;;;;;;7.07;100.00;100214.69;5001348;28;20112;-65
2022/01/15 02:05:05;;;;;;;7.53;5.35;;;;;;;7.31;100.00;100254.88;5014267;28;20029;-64
2022/01/15 02:07:30;;;;;;;9.10;6.00;;;;;;;7.54;100.00;100275.72;5024228;28;20075;-65
2022/01/15 02:09:57;;;;;;;8.15;5.68;;;;;;;7.02;100.00;100203.78;5030921;28;20041;-64
2022/01/15 02:12:23;;;;;;;9.27;6.13;;;;;;;7.43;100.00;100264.88;5022638;28;20125;-65
2022/01/15 02:14:49;;;;;;;9.95;6.13;;;;;;;7.49;100.00;100246.25;5028877;28;20558;-64
2022/01/15 02:17:18;;;;;;;8.75;5.90;;;;;;;7.33;100.00;100263.28;5011294;28;20483;-64
2022/01/15 02:19:57;;;;;;;8.75;6.28;;;;;;;6.88;100.00;100201.41;5010897;28;20084;-64
2022/01/15 02:25:07;;;;;;;9.40;6.40;;;;;;;7.33;100.00;100278.44;5023967;28;20656;-64
2022/01/15 02:27:33;;;;;;;9.73;6.57;;;;;;;6.64;100.00;100158.69;5030512;28;20025;-65
2022/01/15 02:30:03;;;;;;;11.20;7.10;;;;;;;6.68;100.00;100194.84;5029732;28;20036;-64
2022/01/15 02:32:31;;;;;;;11.27;6.38;;;;;;;6.68;100.00;100217.56;5030394;28;20121;-64
2022/01/15 02:34:57;;;;;;;10.52;6.78;;;;;;;7.43;100.00;100295.22;5030481;28;20036;-64
2022/01/15 02:37:23;;;;;;;9.60;5.95;;;;;;;7.04;100.00;100288.00;5028755;28;20021;-64
2022/01/15 02:39:48;;;;;;;12.90;6.65;;;;;;;7.23;100.00;100311.44;5028967;28;20112;-64
2022/01/15 02:42:13;;;;;;;9.95;6.60;;;;;;;7.16;100.00;100324.97;5028639;28;20454;-64
2022/01/15 02:44:43;;;;;;;10.93;6.90;;;;;;;7.22;100.00;100328.28;5029745;28;20462;-64
2022/01/15 02:49:34;;;;;;;9.93;6.82;;;;;;;6.85;100.00;100272.16;5030058;28;20143;-64
2022/01/15 02:51:59;;;;;;;9.45;6.60;;;;;;;7.19;100.00;100347.72;5029924;28;20913;-64
2022/01/15 02:54:25;;;;;;;9.80;6.97;;;;;;;6.35;100.00;100233.00;5030219;28;20433;-64
2022/01/15 02:56:50;;;;;;;8.85;6.55;;;;;;;7.26;100.00;100364.50;5028942;28;20478;-64
2022/01/15 02:59:21;;;;;;;9.80;6.38;;;;;;;7.17;100.00;100355.28;5029000;28;20041;-65
2022/01/15 03:01:49;;;;;;;10.10;7.18;;;;;;;7.03;100.00;100370.56;5030429;28;20029;-64
2022/01/15 03:04:15;;;;;;;10.98;7.05;;;;;;;6.34;100.00;100323.03;5030548;28;20044;-65
2022/01/15 03:06:40;;;;;;;12.15;7.10;;;;;;;6.20;100.00;100311.34;5030567;28;20026;-64
2022/01/15 03:09:06;;;;;;;10.73;7.38;;;;;;;6.10;100.00;100321.47;5030505;28;20095;-65
2022/01/15 03:11:31;;;;;;;11.82;8.05;;;;;;;6.49;100.00;100395.34;5030494;28;20414;-65
2022/01/15 03:13:56;;;;;;;12.55;7.93;;;;;;;6.03;100.00;100339.16;5030463;28;20030;-65
2022/01/15 03:16:23;;;;;;;11.45;8.25;;;;;;;6.51;100.00;100402.06;5030601;28;20129;-65
2022/01/15 03:18:49;;;;;;;11.48;8.23;;;;;;;6.61;100.00;100411.28;5030500;28;20055;-65
2022/01/15 03:21:15;;;;;;;11.63;7.95;;;;;;;6.27;100.00;100355.88;5030324;28;20052;-65
2022/01/15 03:23:41;;;;;;;11.45;8.18;;;;;;;6.21;100.00;100354.25;5030318;28;20064;-65
2022/01/15 03:26:08;;;;;;;13.60;9.05;;;;;;;6.72;100.00;100413.75;5030214;28;20483;-64
2022/01/15 03:28:34;;;;;;;12.35;8.32;;;;;;;6.76;100.00;100415.41;5030058;28;20088;-64
2022/01/15 03:31:00;;;;;;;13.98;9.93;;;;;;;5.97;100.00;100308.91;5030523;28;20418;-64
2022/01/15 03:33:26;;;;;;;13.32;9.38;;;;;;;6.46;100.00;100406.28;5030689;28;20479;-64
2022/01/15 03:35:51;;;;;;;15.13;10.35;;;;;;;6.40;100.00;100435.78;5030214;28;20485;-65
2022/01/15 03:38:17;;;;;;;12.77;9.52;;;;;;;5.93;100.00;100367.78;5030283;28;20108;-65
2022/01/15 03:40:42;;;;;;;13.02;9.60;;;;;;;6.40;100.00;100446.72;5030427;28;20072;-64
2022/01/15 03:43:07;;;;;;;13.43;9.98;;;;;;;5.97;100.00;100384.59;5029932;28;20029;-64
2022/01/15 03:45:33;;;;;;;15.13;10.68;;;;;;;6.34;100.00;100454.31;5030405;28;20534;-64
2022/01/15 03:47:59;;;;;;;13.23;9.98;;;;;;;5.83;100.00;100356.91;5030250;28;20520;-64
2022/01/15 03:50:27;;;;;;;14.00;9.90;;;;;;;6.24;100.00;100434.16;5028464;28;20103;-63
2022/01/15 03:52:53;;;;;;;15.30;10.13;;;;;;;6.14;100.00;100429.13;5030250;28;20037;-64
2022/01/15 03:55:20;;;;;;;15.40;10.70;;;;;;;6.33;100.00;100446.75;5031201;28;20499;-64
2022/01/15 03:57:45;;;;;;;15.55;10.73;;;;;;;5.65;100.00;100386.31;5014370;28;20116;-63
2022/01/15 04:00:20;;;;;;;15.90;11.38;;;;;;;5.68;100.00;100386.34;5030638;28;20529;-65
2022/01/15 04:02:48;;;;;;;17.08;12.23;;;;;;;5.84;100.00;100388.00;5033035;28;20048;-65
2022/01/15 04:05:13;;;;;;;18.35;12.00;;;;;;;5.39;100.00;100345.22;5033474;28;20518;-64
2022/01/15 04:07:39;;;;;;;17.40;11.30;;;;;;;6.09;100.00;100453.56;5033265;28;20029;-64
2022/01/15 04:10:08;;;;;;;20.73;11.85;;;;;;;6.19;100.00;100459.41;5025145;28;20022;-64
2022/01/15 04:12:33;;;;;;;16.83;11.63;;;;;;;5.99;100.00;100456.09;5025538;28;20606;-64
2022/01/15 04:14:59;;;;;;;17.48;11.55;;;;;;;5.92;100.00;100465.34;5017123;28;20032;-65
2022/01/15 04:17:25;;;;;;;17.25;11.30;;;;;;;5.63;100.00;100400.63;5018292;28;20106;-64
2022/01/15 04:19:52;;;;;;;17.75;11.90;;;;;;;5.47;100.00;100401.50;5017489;28;20030;-64
2022/01/15 04:22:17;;;;;;;18.55;12.82;;;;;;;5.73;100.00;100456.09;5013490;28;20033;-63
2022/01/15 04:24:42;;;;;;;16.83;12.02;;;;;;;5.13;100.00;100366.19;5012819;28;20033;-63
2022/01/15 04:27:08;;;;;;;17.10;12.00;;;;;;;5.21;100.00;100374.59;5013319;28;20030;-65
2022/01/15 04:29:34;;;;;;;18.45;12.05;;;;;;;5.62;100.00;100454.44;5028047;28;20025;-67
2022/01/15 04:32:00;;;;;;;16.92;11.90;;;;;;;5.54;100.00;100453.59;5013290;28;20034;-65
2022/01/15 04:34:29;;;;;;;19.42;12.90;;;;;;;5.22;100.00;100391.41;5012936;28;20028;-65
2022/01/15 04:37:01;;;;;;;18.50;12.27;;;;;;;5.58;100.00;100468.72;5012843;28;20041;-66
2022/01/15 04:39:27;;;;;;;15.93;11.15;;;;;;;5.64;100.00;100476.28;5016444;28;20558;-65
2022/01/15 04:41:52;;;;;;;17.15;12.20;;;;;;;5.50;100.00;100457.78;5032594;28;20232;-65
2022/01/15 04:44:17;;;;;;;18.13;11.73;;;;;;;5.21;100.00;100402.31;5032262;28;20035;-65
2022/01/15 04:46:43;;;;;;;20.25;12.73;;;;;;;5.64;100.00;100473.75;5013868;28;20030;-65
2022/01/15 04:49:09;;;;;;;16.45;11.70;;;;;;;5.67;100.00;100462.81;5013068;28;20030;-64
2022/01/15 04:51:35;;;;;;;19.05;12.93;;;;;;;5.36;100.00;100420.81;5013056;28;20030;-65
2022/01/15 04:54:00;;;;;;;20.63;14.20;;;;;;;5.88;100.00;100460.31;5012664;28;20038;-63
2022/01/15 04:56:26;;;;;;;19.55;13.57;;;;;;;5.72;100.00;100479.66;5013173;28;20072;-65
2022/01/15 04:58:52;;;;;;;19.67;13.40;;;;;;;5.13;100.00;100373.75;5012202;28;20026;-65
2022/01/15 05:01:17;;;;;;;18.85;12.32;;;;;;;5.86;100.00;100499.84;5010158;28;20073;-65
2022/01/15 05:03:43;;;;;;;18.85;12.32;;;;;;;5.85;100.00;100499.00;5012669;28;20049;-65
2022/01/15 05:06:08;;;;;;;19.83;12.90;;;;;;;5.75;100.00;100496.44;5012202;28;20061;-65
2022/01/15 05:08:34;;;;;;;18.25;12.38;;;;;;;5.77;100.00;100508.22;5012269;28;20034;-65
2022/01/15 05:11:10;;;;;;;19.63;12.65;;;;;;;5.32;100.00;100432.56;5012317;28;20037;-66
2022/01/15 05:13:36;;;;;;;20.05;12.63;;;;;;;5.74;100.00;100520.84;5012507;28;20030;-65
2022/01/15 05:16:02;;;;;;;21.40;13.40;;;;;;;5.34;100.00;100455.25;5010886;28;20376;-66
2022/01/15 05:18:27;;;;;;;22.15;13.57;;;;;;;5.85;100.00;100533.47;5012463;28;20091;-66
2022/01/15 05:20:53;;;;;;;18.92;12.80;;;;;;;5.78;100.00;100527.56;5012561;28;20428;-66
2022/01/15 05:23:18;;;;;;;21.42;13.60;;;;;;;5.83;100.00;100556.19;5012112;28;20103;-65
2022/01/15 05:25:44;;;;;;;20.20;12.55;;;;;;;4.98;100.00;100404.00;5027785;28;20018;-65
2022/01/15 05:28:09;;;;;;;19.10;12.80;;;;;;;5.43;100.00;100500.66;5011022;28;20029;-67
2022/01/15 05:30:35;;;;;;;18.75;13.18;;;;;;;5.09;100.00;100436.75;5012516;28;20088;-66
2022/01/15 05:33:00;;;;;;;21.20;14.20;;;;;;;5.72;100.00;100556.97;5012293;28;20033;-68
2022/01/15 05:35:27;;;;;;;20.92;13.50;;;;;;;5.81;100.00;100562.88;5012313;28;20030;-68
2022/01/15 05:37:56;;;;;;;18.38;12.93;;;;;;;5.74;100.00;100568.78;5011834;28;20032;-68
2022/01/15 05:40:23;;;;;;;21.00;13.60;;;;;;;5.36;100.00;100509.88;5012049;28;20018;-68
2022/01/15 05:42:49;;;;;;;36.95;24.63;;;;;;;5.33;100.00;100504.00;5010718;28;20096;-67
2022/01/15 05:45:14;;;;;;;23.05;16.25;;;;;;;5.49;100.00;100540.97;5010723;28;20033;-67
2022/01/15 05:47:40;;;;;;;24.65;16.17;;;;;;;5.43;100.00;100528.38;5012073;28;20428;-66
2022/01/15 05:50:06;;;;;;;19.58;13.15;;;;;;;5.59;100.00;100551.06;5012117;28;20492;-67
2022/01/15 05:52:32;;;;;;;19.60;13.60;;;;;;;5.57;100.00;100552.75;5026952;28;20096;-66
2022/01/15 05:54:57;;;;;;;20.58;13.60;;;;;;;5.46;100.00;100543.50;5012336;28;20037;-66
2022/01/15 05:57:24;;;;;;;30.42;19.17;;;;;;;5.27;100.00;100509.84;5026667;28;20022;-66
2022/01/15 05:59:51;;;;;;;24.50;15.90;;;;;;;5.39;100.00;100542.63;5011649;28;20084;-65
2022/01/15 06:02:21;;;;;;;20.52;13.85;;;;;;;5.25;100.00;100524.97;5030848;28;20049;-66
2022/01/15 06:04:47;;;;;;;18.60;13.00;;;;;;;5.72;100.00;100587.25;5030988;28;20025;-66
2022/01/15 06:07:12;;;;;;;20.80;13.40;;;;;;;5.66;100.00;100544.38;5030613;28;20575;-65
2022/01/15 06:09:38;;;;;;;19.27;13.02;;;;;;;5.61;100.00;100569.56;5030951;28;20029;-66
2022/01/15 06:12:04;;;;;;;25.58;15.57;;;;;;;5.49;100.00;100558.63;5030168;28;20128;-66
2022/01/15 06:14:31;;;;;;;22.30;14.32;;;;;;;4.96;100.00;100471.16;5030741;28;20040;-67
2022/01/15 06:16:58;;;;;;;20.35;13.80;;;;;;;5.21;100.00;100533.34;5028802;28;20422;-66
2022/01/15 06:19:23;;;;;;;22.67;15.63;;;;;;;5.18;100.00;100538.41;5030343;28;20101;-66
2022/01/15 06:21:49;;;;;;;20.67;13.63;;;;;;;5.08;100.00;100526.63;5030190;28;20031;-66
2022/01/15 06:24:14;;;;;;;17.38;12.23;;;;;;;5.57;100.00;100605.72;5031073;28;20029;-66
2022/01/15 06:26:40;;;;;;;18.95;13.15;;;;;;;5.23;100.00;100566.13;5030776;28;20108;-66
2022/01/15 06:29:05;;;;;;;20.08;13.07;;;;;;;4.96;100.00;100530.75;5031234;28;20447;-66
2022/01/15 06:31:31;;;;;;;19.08;12.48;;;;;;;5.23;100.00;100577.03;5030923;28;20060;-67
2022/01/15 06:33:58;;;;;;;18.33;12.05;;;;;;;5.61;100.00;100630.09;5029082;28;20033;-65
2022/01/15 06:36:23;;;;;;;17.65;11.50;;;;;;;5.04;100.00;100531.63;5030305;28;20025;-67
2022/01/15 06:38:49;;;;;;;19.20;12.48;;;;;;;5.52;100.00;100609.06;5031092;28;20475;-66
2022/01/15 06:41:14;;;;;;;20.55;13.82;;;;;;;5.55;100.00;100636.78;5030992;28;20106;-66
2022/01/15 06:43:40;;;;;;;24.83;15.80;;;;;;;5.19;100.00;100595.50;5030278;28;20028;-66
2022/01/15 06:46:05;;;;;;;26.42;17.05;;;;;;;4.77;100.00;100514.75;5025674;28;20060;-66
2022/01/15 06:48:31;;;;;;;25.90;17.27;;;;;;;5.53;100.00;100646.03;5010866;28;20525;-66
2022/01/15 06:50:56;;;;;;;23.33;16.45;;;;;;;5.40;100.00;100626.66;5025523;28;20026;-66
2022/01/15 06:53:22;;;;;;;20.52;14.20;;;;;;;5.45;100.00;100622.50;5010840;28;20029;-66
2022/01/15 06:55:50;;;;;;;20.98;13.57;;;;;;;5.51;100.00;100640.13;5029954;28;20120;-66
2022/01/15 06:58:16;;;;;;;18.80;13.70;;;;;;;5.57;100.00;100658.66;5028963;28;20499;-66
2022/01/15 07:00:42;;;;;;;18.45;13.25;;;;;;;5.11;100.00;100581.22;5030090;28;20014;-67
2022/01/15 07:03:07;;;;;;;16.67;11.82;;;;;;;5.44;100.00;100646.88;5029571;28;20076;-66
2022/01/15 07:05:33;;;;;;;17.55;12.52;;;;;;;5.15;100.00;100591.28;5029972;28;20036;-66
2022/01/15 07:07:58;;;;;;;18.20;12.35;;;;;;;5.17;100.00;100606.41;5028249;28;20077;-66
2022/01/15 07:10:24;;;;;;;17.55;12.45;;;;;;;4.97;100.00;100576.09;5028651;28;20048;-66
2022/01/15 07:12:50;;;;;;;19.95;13.18;;;;;;;5.59;100.00;100687.25;5029838;28;20105;-66
2022/01/15 07:15:15;;;;;;;20.17;13.38;;;;;;;5.34;100.00;100641.78;5029482;28;20037;-66
2022/01/15 07:17:45;;;;;;;21.33;13.48;;;;;;;5.08;100.00;100607.25;5028405;28;20037;-65
2022/01/15 07:20:12;;;;;;;21.95;14.07;;;;;;;5.13;100.00;100627.44;5029325;28;20522;-66
2022/01/15 07:22:39;;;;;;;25.80;17.40;;;;;;;5.34;100.00;100651.84;5030096;28;20407;-67
2022/01/15 07:25:06;;;;;;;20.23;13.40;;;;;;;5.29;100.00;100632.50;5030324;28;20457;-66
2022/01/15 07:27:31;;;;;;;20.58;13.40;;;;;;;5.73;100.00;100720.94;5029848;28;20026;-66
2022/01/15 07:29:57;;;;;;;19.75;12.82;;;;;;;5.79;100.00;100720.94;5032200;28;20117;-66
2022/01/15 07:32:22;;;;;;;19.48;12.82;;;;;;;5.84;100.00;100724.34;5033197;28;20491;-66
2022/01/15 07:34:48;;;;;;;20.38;13.65;;;;;;;5.43;100.00;100644.34;5033411;28;20041;-66
2022/01/15 07:37:14;;;;;;;24.05;15.02;;;;;;;5.84;100.00;100718.47;5033781;28;20033;-66
2022/01/15 07:39:42;;;;;;;18.55;13.15;;;;;;;5.84;100.00;100723.53;5033568;28;20036;-65
2022/01/15 07:42:08;;;;;;;21.35;14.73;;;;;;;5.83;100.00;100717.63;5033421;28;20518;-66
2022/01/15 07:44:34;;;;;;;20.25;14.45;;;;;;;6.00;100.00;100733.66;5032905;28;20033;-66
2022/01/15 07:46:59;;;;;;;19.70;14.23;;;;;;;5.71;100.00;100692.34;5033302;28;20116;-66
2022/01/15 07:49:25;;;;;;;19.48;13.88;;;;;;;5.91;100.00;100726.06;5033586;28;20026;-66
2022/01/15 07:51:50;;;;;;;20.85;14.07;;;;;;;5.59;100.00;100667.06;5032432;28;20503;-65
2022/01/15 07:54:16;;;;;;;18.10;12.00;;;;;;;6.16;100.00;100752.19;5033519;28;20034;-66
2022/01/15 07:56:41;;;;;;;17.70;12.38;;;;;;;5.71;100.00;100687.28;5032868;28;20025;-66
2022/01/15 07:59:07;;;;;;;20.00;13.65;;;;;;;5.71;100.00;100676.34;5033085;28;20049;-67
2022/01/15 08:01:32;;;;;;;20.23;14.60;;;;;;;5.49;100.00;100650.22;5032850;28;20041;-66
2022/01/15 08:03:57;;;;;;;21.85;14.10;;;;;;;5.77;100.00;100686.47;5033212;28;20042;-66
2022/01/15 08:06:23;;;;;;;20.40;14.70;;;;;;;6.09;100.00;100717.69;5031920;28;20120;-65
2022/01/15 08:08:48;;;;;;;20.77;14.13;;;;;;;5.98;100.00;100663.84;5033251;28;20491;-64
2022/01/15 08:11:14;;;;;;;24.20;14.45;;;;;;;6.42;100.00;100753.09;5032914;28;20112;-66
2022/01/15 08:13:39;;;;;;;24.92;17.05;;;;;;;6.35;100.00;100728.69;5032762;28;20034;-65
2022/01/15 08:16:05;;;;;;;20.20;14.55;;;;;;;6.12;100.00;100694.97;5032746;28;20095;-66
2022/01/15 08:18:32;;;;;;;18.83;13.70;;;;;;;6.18;100.00;100682.34;5032653;28;20144;-65
2022/01/15 08:20:57;;;;;;;23.15;15.18;;;;;;;6.09;100.00;100664.69;5032832;28;20035;-64
2022/01/15 08:23:23;;;;;;;20.05;14.23;;;;;;;6.40;100.00;100704.25;5033463;28;20017;-64
2022/01/15 08:25:48;;;;;;;22.73;16.25;;;;;;;6.77;100.00;100756.47;5033082;28;20025;-65
2022/01/15 08:28:15;;;;;;;22.20;14.20;;;;;;;6.70;100.00;100753.94;5032360;28;20041;-65
2022/01/15 08:30:40;;;;;;;19.85;12.77;;;;;;;6.71;100.00;100751.44;5031620;28;20534;-65
2022/01/15 08:33:06;;;;;;;19.13;13.40;;;;;;;6.73;100.00;100746.38;5033148;28;20120;-66
2022/01/15 08:35:31;;;;;;;21.52;13.82;;;;;;;6.78;100.00;100757.31;5032691;28;20025;-66
2022/01/15 08:37:59;;;;;;;21.52;13.38;;;;;;;6.80;100.00;100755.63;5032541;28;20025;-65
2022/01/15 08:40:25;;;;;;;27.48;17.35;;;;;;;6.03;100.00;100624.31;5032492;28;20558;-66
2022/01/15 08:42:50;;;;;;;20.33;13.60;;;;;;;6.45;100.00;100694.19;5030947;28;20114;-65
2022/01/15 08:45:17;;;;;;;31.67;21.65;;;;;;;6.49;100.00;100680.72;5032219;28;20522;-66
2022/01/15 08:47:43;;;;;;;23.80;16.10;;;;;;;6.69;100.00;100712.72;5032480;28;20258;-66
2022/01/15 08:50:11;;;;;;;18.67;13.13;;;;;;;6.49;100.00;100685.75;5032274;28;20075;-66
2022/01/15 08:52:39;;;;;;;19.30;13.95;;;;;;;6.85;100.00;100751.44;5031138;28;20041;-66
2022/01/15 08:55:06;;;;;;;24.02;16.20;;;;;;;6.93;100.00;100765.72;5031725;28;20135;-66
2022/01/15 08:57:31;;;;;;;22.20;15.65;;;;;;;6.68;100.00;100723.63;5031904;28;20033;-66
2022/01/15 08:59:57;;;;;;;20.20;14.65;;;;;;;6.89;100.00;100766.56;5031809;28;20415;-66
2022/01/15 09:02:22;;;;;;;26.65;18.55;;;;;;;6.97;100.00;100743.84;5030965;28;20507;-66
2022/01/15 09:04:47;;;;;;;22.98;17.05;;;;;;;6.58;100.00;100694.16;5032090;28;20037;-66
2022/01/15 09:07:13;;;;;;;28.08;18.05;;;;;;;7.03;100.00;100738.78;5032120;28;20057;-66
2022/01/15 09:09:40;;;;;;;24.80;17.00;;;;;;;7.11;100.00;100772.44;5031932;28;20537;-66
2022/01/15 09:12:06;;;;;;;24.00;16.85;;;;;;;6.96;100.00;100714.34;5030523;28;20083;-66
2022/01/15 09:14:31;;;;;;;18.48;13.07;;;;;;;7.03;100.00;100714.31;5031618;28;20159;-66
2022/01/15 09:16:57;;;;;;;17.70;11.88;;;;;;;6.83;100.00;100688.25;5030942;28;20028;-66
2022/01/15 09:19:22;;;;;;;13.85;9.27;;;;;;;7.39;100.00;100751.31;5031529;28;20489;-66
2022/01/15 09:21:48;;;;;;;13.88;8.90;;;;;;;6.96;100.00;100681.50;5030608;28;20083;-66
2022/01/15 09:24:13;;;;;;;12.50;8.63;;;;;;;7.36;100.00;100755.56;5031681;28;20032;-66
2022/01/15 09:32:06;;;;;;;12.50;8.60;;;;;;;7.33;100.00;100745.47;5031190;28;20056;-66
2022/01/15 09:34:34;;;;;;;13.27;8.65;;;;;;;7.27;100.00;100742.94;5031983;28;20037;-65
2022/01/15 09:37:00;;;;;;;13.73;9.43;;;;;;;7.29;100.00;100749.66;5031253;28;20033;-68
2022/01/15 09:39:26;;;;;;;16.08;11.20;;;;;;;7.14;100.00;100724.44;5031102;28;20089;-65
2022/01/15 09:41:54;;;;;;;22.52;12.07;;;;;;;7.54;100.00;100748.78;5031187;28;20037;-66
2022/01/15 09:44:23;;;;;;;59.83;25.30;;;;;;;7.56;100.00;100710.81;5031307;28;20120;-66
2022/01/15 09:46:50;;;;;;;49.35;20.20;;;;;;;7.73;100.00;100687.13;5031314;28;20026;-65
2022/01/15 09:49:17;;;;;;;17.10;10.45;;;;;;;8.30;100.00;100740.84;5031101;28;20501;-66
2022/01/15 09:51:44;;;;;;;10.23;6.88;;;;;;;7.87;99.27;100656.66;5029674;28;20419;-65
2022/01/15 09:54:11;;;;;;;27.67;13.15;;;;;;;8.62;99.16;100724.53;5030292;28;20040;-66
2022/01/15 09:56:37;;;;;;;57.45;22.02;;;;;;;8.32;97.02;100658.91;5029411;28;20025;-66
2022/01/15 09:59:03;;;;;;;26.10;13.05;;;;;;;8.89;97.42;100728.53;5028853;28;20091;-67
2022/01/15 10:01:30;;;;;;;13.48;7.15;;;;;;;8.10;95.50;100594.03;5030598;28;20030;-66
2022/01/15 10:03:56;;;;;;;23.98;12.93;;;;;;;8.54;94.83;100680.69;5019019;28;20057;-66
2022/01/15 10:06:22;;;;;;;11.05;7.53;;;;;;;8.86;92.73;100708.28;5011769;28;20026;-67
2022/01/15 10:09:08;;;;;;;20.77;12.20;;;;;;;8.63;91.71;100664.56;5019002;28;20420;-67
2022/01/15 10:11:40;;;;;;;11.35;7.78;;;;;;;9.05;89.97;100742.72;5023610;28;20040;-67
2022/01/15 10:14:23;;;;;;;13.15;8.63;;;;;;;9.04;88.70;100727.53;5015884;28;20034;-65
2022/01/15 10:16:48;;;;;;;10.98;7.72;;;;;;;8.93;90.01;100650.75;5011471;28;20124;-65
2022/01/15 10:19:27;;;;;;;10.85;6.60;;;;;;;8.99;89.96;100687.03;5011195;28;20143;-65
2022/01/15 10:22:21;;;;;;;10.18;6.88;;;;;;;9.47;88.33;100739.75;5011660;28;20105;-67
2022/01/15 10:25:05;;;;;;;10.05;7.10;;;;;;;9.39;84.88;100735.63;5023638;28;20491;-65
2022/01/15 10:27:32;;;;;;;13.05;9.15;;;;;;;9.40;89.75;100732.22;5030475;28;20021;-66
2022/01/15 10:30:11;;;;;;;12.43;7.53;;;;;;;9.59;88.14;100731.16;5010774;28;20058;-65
2022/01/15 10:32:54;;;;;;;10.82;7.43;;;;;;;9.67;91.38;100723.44;5015583;28;20049;-66
2022/01/15 10:35:20;;;;;;;11.25;7.35;;;;;;;9.78;90.81;100711.47;5030265;28;20515;-65
2022/01/15 10:37:55;;;;;;;9.32;6.97;;;;;;;9.64;88.76;100716.72;5029829;28;20040;-65
2022/01/15 10:40:35;;;;;;;8.57;5.68;;;;;;;9.18;85.36;100637.78;5030523;28;20076;-66
2022/01/15 10:43:01;;;;;;;12.13;8.50;;;;;;;9.98;83.68;100701.88;5030170;28;20029;-64
2022/01/15 10:45:31;;;;;;;12.75;6.95;;;;;;;9.39;86.85;100645.13;5030130;28;20344;-64
2022/01/15 10:48:02;;;;;;;10.93;7.15;;;;;;;9.87;86.68;100696.94;5030041;28;20033;-65
2022/01/15 10:50:32;;;;;;;15.90;12.68;;;;;;;10.16;88.34;100702.47;5029616;28;20030;-64
2022/01/15 10:53:05;;;;;;;19.83;15.63;;;;;;;10.36;88.45;100692.84;5012066;28;20419;-65
2022/01/15 10:55:32;;;;;;;66.53;46.72;;;;;;;9.72;88.01;100637.94;5030194;28;20038;-68
2022/01/15 10:58:01;;;;;;;36.15;26.20;;;;;;;10.44;96.92;100697.81;5030026;28;20029;-65
2022/01/15 11:00:49;;;;;;;14.50;11.10;;;;;;;10.11;88.09;100696.63;5029836;28;20083;-65
2022/01/15 11:03:17;;;;;;;11.30;7.55;;;;;;;9.83;89.38;100647.06;5029917;28;20526;-66
2022/01/15 11:05:45;;;;;;;13.63;8.88;;;;;;;9.65;89.67;100618.56;5029838;28;20037;-66
2022/01/15 11:08:16;;;;;;;10.55;7.28;;;;;;;9.91;88.97;100705.34;5029803;28;20067;-66
2022/01/15 11:10:55;;;;;;;11.13;8.23;;;;;;;10.18;90.04;100695.69;5029840;28;20120;-66
2022/01/15 11:13:28;;;;;;;10.90;7.57;;;;;;;9.84;91.71;100628.44;5029500;28;20120;-66
2022/01/15 11:16:00;;;;;;;11.82;7.13;;;;;;;9.80;90.30;100616.66;5030011;28;20033;-66
2022/01/15 11:18:36;;;;;;;12.32;7.55;;;;;;;10.49;89.34;100701.13;5029315;28;20026;-66
2022/01/15 11:21:08;;;;;;;12.15;8.65;;;;;;;10.48;89.08;100671.50;5029737;28;20119;-66
2022/01/15 11:23:36;;;;;;;13.52;8.40;;;;;;;10.60;90.29;100699.25;5029495;28;20470;-67
2022/01/15 11:26:11;;;;;;;11.95;8.32;;;;;;;11.12;85.66;100699.19;5029381;28;20044;-64
2022/01/15 11:28:37;;;;;;;10.75;7.70;;;;;;;10.94;85.25;100674.06;5029774;28;20025;-65
2022/01/15 11:31:10;;;;;;;12.32;9.15;;;;;;;10.44;82.05;100611.41;5029639;28;20120;-65
2022/01/15 11:33:45;;;;;;;17.25;12.18;;;;;;;11.07;83.82;100645.00;5029661;28;20037;-64
2022/01/15 11:36:30;;;;;;;13.85;9.85;;;;;;;11.34;82.05;100677.56;5029176;28;20040;-63
2022/01/15 11:38:57;;;;;;;13.63;9.40;;;;;;;10.73;81.39;100672.78;5028361;28;20095;-65
2022/01/15 11:41:22;;;;;;;13.20;9.25;;;;;;;11.39;81.91;100691.00;5009129;28;20026;-66
2022/01/15 11:43:49;;;;;;;10.25;7.90;;;;;;;10.99;80.38;100611.25;5010597;28;20498;-65